sensor_id;sensor_type;location;lat;lon;timestamp;P1;durP1;ratioP1;P2;durP2;ratioP2
39454;SDS011;25155;41.890;23.446;2022-08-11T00:00:31;3.67;;;2.90;;
39454;SDS011;25155;41.890;23.446;2022-08-11T00:03:06;3.47;;;2.65;;
39454;SDS011;25155;41.890;23.446;2022-08-11T00:05:42;3.47;;;2.58;;
39454;SDS011;25155;41.890;23.446;2022-08-11T00:08:11;4.32;;;3.15;;
39454;SDS011;25155;41.890;23.446;2022-08-11T00:10:52;3.08;;;2.28;;
39454;SDS011;25155;41.890;23.446;2022-08-11T00:13:21;6.13;;;3.45;;
39454;SDS011;25155;41.890;23.446;2022-08-11T00:15:57;5.28;;;3.90;;
39454;SDS011;25155;41.890;23.446;2022-08-11T00:18:27;4.28;;;3.53;;
39454;SDS011;25155;41.890;23.446;2022-08-11T00:20:57;3.38;;;2.58;;
39454;SDS011;25155;41.890;23.446;2022-08-11T00:23:26;3.33;;;2.53;;
39454;SDS011;25155;41.890;23.446;2022-08-11T00:25:53;4.95;;;3.33;;
39454;SDS011;25155;41.890;23.446;2022-08-11T00:28:23;4.05;;;2.80;;
39454;SDS011;25155;41.890;23.446;2022-08-11T00:30:52;3.55;;;2.47;;
39454;SDS011;25155;41.890;23.446;2022-08-11T00:33:21;3.20;;;2.38;;
39454;SDS011;25155;41.890;23.446;2022-08-11T00:35:51;3.10;;;2.20;;
39454;SDS011;25155;41.890;23.446;2022-08-11T00:38:25;3.17;;;2.40;;
39454;SDS011;25155;41.890;23.446;2022-08-11T00:41:00;3.67;;;2.75;;
39454;SDS011;25155;41.890;23.446;2022-08-11T00:46:39;5.45;;;3.15;;
39454;SDS011;25155;41.890;23.446;2022-08-11T00:49:20;4.47;;;3.20;;
39454;SDS011;25155;41.890;23.446;2022-08-11T00:52:07;4.00;;;3.00;;
39454;SDS011;25155;41.890;23.446;2022-08-11T00:55:06;4.10;;;2.67;;
39454;SDS011;25155;41.890;23.446;2022-08-11T01:01:09;3.97;;;2.97;;
39454;SDS011;25155;41.890;23.446;2022-08-11T01:04:03;4.55;;;3.50;;
39454;SDS011;25155;41.890;23.446;2022-08-11T01:07:02;3.97;;;2.88;;
39454;SDS011;25155;41.890;23.446;2022-08-11T01:10:01;3.70;;;2.85;;
39454;SDS011;25155;41.890;23.446;2022-08-11T01:12:52;3.58;;;2.47;;
39454;SDS011;25155;41.890;23.446;2022-08-11T01:15:46;4.63;;;3.80;;
39454;SDS011;25155;41.890;23.446;2022-08-11T01:28:03;4.28;;;2.80;;
39454;SDS011;25155;41.890;23.446;2022-08-11T01:31:15;4.78;;;3.78;;
39454;SDS011;25155;41.890;23.446;2022-08-11T01:37:17;7.93;;;4.60;;
39454;SDS011;25155;41.890;23.446;2022-08-11T01:43:16;4.90;;;4.10;;
39454;SDS011;25155;41.890;23.446;2022-08-11T01:46:23;5.28;;;3.88;;
39454;SDS011;25155;41.890;23.446;2022-08-11T01:49:00;6.97;;;4.15;;
39454;SDS011;25155;41.890;23.446;2022-08-11T01:51:43;5.00;;;3.58;;
39454;SDS011;25155;41.890;23.446;2022-08-11T01:54:30;4.45;;;3.33;;
39454;SDS011;25155;41.890;23.446;2022-08-11T01:57:11;5.38;;;3.92;;
39454;SDS011;25155;41.890;23.446;2022-08-11T01:59:53;4.85;;;3.80;;
39454;SDS011;25155;41.890;23.446;2022-08-11T02:02:31;4.57;;;3.35;;
39454;SDS011;25155;41.890;23.446;2022-08-11T02:05:31;6.50;;;4.13;;
39454;SDS011;25155;41.890;23.446;2022-08-11T02:08:14;6.35;;;5.47;;
39454;SDS011;25155;41.890;23.446;2022-08-11T02:11:00;6.63;;;5.90;;
39454;SDS011;25155;41.890;23.446;2022-08-11T02:14:01;6.13;;;5.43;;
39454;SDS011;25155;41.890;23.446;2022-08-11T02:16:39;6.57;;;5.72;;
39454;SDS011;25155;41.890;23.446;2022-08-11T02:19:27;7.28;;;6.38;;
39454;SDS011;25155;41.890;23.446;2022-08-11T02:22:24;6.03;;;5.32;;
39454;SDS011;25155;41.890;23.446;2022-08-11T02:25:19;4.97;;;4.30;;
39454;SDS011;25155;41.890;23.446;2022-08-11T02:27:53;4.85;;;4.15;;
39454;SDS011;25155;41.890;23.446;2022-08-11T02:30:30;5.57;;;4.53;;
39454;SDS011;25155;41.890;23.446;2022-08-11T02:33:05;4.75;;;3.90;;
39454;SDS011;25155;41.890;23.446;2022-08-11T02:35:53;4.75;;;3.70;;
39454;SDS011;25155;41.890;23.446;2022-08-11T02:38:25;4.40;;;3.50;;
39454;SDS011;25155;41.890;23.446;2022-08-11T02:41:02;4.75;;;3.78;;
39454;SDS011;25155;41.890;23.446;2022-08-11T02:44:09;6.43;;;5.70;;
39454;SDS011;25155;41.890;23.446;2022-08-11T02:46:48;6.83;;;5.63;;
39454;SDS011;25155;41.890;23.446;2022-08-11T02:49:26;6.75;;;5.28;;
39454;SDS011;25155;41.890;23.446;2022-08-11T02:52:22;5.95;;;4.95;;
39454;SDS011;25155;41.890;23.446;2022-08-11T02:55:01;6.55;;;5.07;;
39454;SDS011;25155;41.890;23.446;2022-08-11T02:57:40;7.78;;;5.75;;
39454;SDS011;25155;41.890;23.446;2022-08-11T03:00:15;6.85;;;5.55;;
39454;SDS011;25155;41.890;23.446;2022-08-11T03:05:35;6.25;;;5.25;;
39454;SDS011;25155;41.890;23.446;2022-08-11T03:08:16;5.57;;;4.78;;
39454;SDS011;25155;41.890;23.446;2022-08-11T03:10:59;5.65;;;4.20;;
39454;SDS011;25155;41.890;23.446;2022-08-11T03:13:49;5.28;;;4.30;;
39454;SDS011;25155;41.890;23.446;2022-08-11T03:16:45;4.43;;;3.50;;
39454;SDS011;25155;41.890;23.446;2022-08-11T03:19:21;4.95;;;3.70;;
39454;SDS011;25155;41.890;23.446;2022-08-11T03:22:01;6.28;;;5.25;;
39454;SDS011;25155;41.890;23.446;2022-08-11T03:24:41;5.80;;;4.88;;
39454;SDS011;25155;41.890;23.446;2022-08-11T03:27:23;8.45;;;4.90;;
39454;SDS011;25155;41.890;23.446;2022-08-11T03:30:05;6.07;;;4.72;;
39454;SDS011;25155;41.890;23.446;2022-08-11T03:32:41;5.57;;;4.72;;
39454;SDS011;25155;41.890;23.446;2022-08-11T03:35:31;5.63;;;3.92;;
39454;SDS011;25155;41.890;23.446;2022-08-11T03:38:10;5.88;;;4.57;;
39454;SDS011;25155;41.890;23.446;2022-08-11T03:40:46;5.35;;;4.65;;
39454;SDS011;25155;41.890;23.446;2022-08-11T03:43:57;5.13;;;3.60;;
39454;SDS011;25155;41.890;23.446;2022-08-11T03:46:46;6.60;;;4.65;;
39454;SDS011;25155;41.890;23.446;2022-08-11T03:49:55;5.70;;;4.90;;
39454;SDS011;25155;41.890;23.446;2022-08-11T03:52:31;5.63;;;4.65;;
39454;SDS011;25155;41.890;23.446;2022-08-11T03:55:13;5.57;;;4.45;;
39454;SDS011;25155;41.890;23.446;2022-08-11T04:04:07;4.43;;;3.15;;
39454;SDS011;25155;41.890;23.446;2022-08-11T04:10:39;5.85;;;4.47;;
39454;SDS011;25155;41.890;23.446;2022-08-11T04:13:34;3.88;;;3.05;;
39454;SDS011;25155;41.890;23.446;2022-08-11T04:16:53;4.97;;;4.13;;
39454;SDS011;25155;41.890;23.446;2022-08-11T04:19:50;6.10;;;4.63;;
39454;SDS011;25155;41.890;23.446;2022-08-11T04:25:45;6.30;;;5.20;;
39454;SDS011;25155;41.890;23.446;2022-08-11T04:28:41;6.65;;;5.10;;
39454;SDS011;25155;41.890;23.446;2022-08-11T04:34:05;5.78;;;4.88;;
39454;SDS011;25155;41.890;23.446;2022-08-11T04:37:09;5.50;;;4.72;;
39454;SDS011;25155;41.890;23.446;2022-08-11T04:49:23;6.28;;;5.30;;
39454;SDS011;25155;41.890;23.446;2022-08-11T04:52:33;5.68;;;5.00;;
39454;SDS011;25155;41.890;23.446;2022-08-11T04:58:54;6.82;;;5.40;;
39454;SDS011;25155;41.890;23.446;2022-08-11T05:02:09;6.28;;;5.18;;
39454;SDS011;25155;41.890;23.446;2022-08-11T05:05:08;7.70;;;6.78;;
39454;SDS011;25155;41.890;23.446;2022-08-11T05:08:09;8.13;;;7.32;;
39454;SDS011;25155;41.890;23.446;2022-08-11T05:10:58;9.60;;;8.20;;
39454;SDS011;25155;41.890;23.446;2022-08-11T05:13:40;9.50;;;8.52;;
39454;SDS011;25155;41.890;23.446;2022-08-11T05:16:43;11.88;;;10.63;;
39454;SDS011;25155;41.890;23.446;2022-08-11T05:19:38;9.63;;;8.52;;
39454;SDS011;25155;41.890;23.446;2022-08-11T05:22:28;7.60;;;6.60;;
39454;SDS011;25155;41.890;23.446;2022-08-11T05:25:15;11.55;;;9.68;;
39454;SDS011;25155;41.890;23.446;2022-08-11T05:28:04;11.43;;;9.90;;
39454;SDS011;25155;41.890;23.446;2022-08-11T05:30:53;10.00;;;8.70;;
39454;SDS011;25155;41.890;23.446;2022-08-11T05:33:44;9.70;;;8.70;;
39454;SDS011;25155;41.890;23.446;2022-08-11T05:36:34;8.18;;;7.30;;
39454;SDS011;25155;41.890;23.446;2022-08-11T05:39:12;6.80;;;6.10;;
39454;SDS011;25155;41.890;23.446;2022-08-11T05:41:59;6.05;;;5.40;;
39454;SDS011;25155;41.890;23.446;2022-08-11T05:44:47;8.52;;;7.30;;
39454;SDS011;25155;41.890;23.446;2022-08-11T05:47:34;15.40;;;10.68;;
39454;SDS011;25155;41.890;23.446;2022-08-11T05:50:21;10.80;;;9.70;;
39454;SDS011;25155;41.890;23.446;2022-08-11T05:53:08;13.05;;;11.68;;
39454;SDS011;25155;41.890;23.446;2022-08-11T05:55:55;11.63;;;10.40;;
39454;SDS011;25155;41.890;23.446;2022-08-11T05:58:42;9.30;;;8.40;;
39454;SDS011;25155;41.890;23.446;2022-08-11T06:01:13;12.73;;;10.32;;
39454;SDS011;25155;41.890;23.446;2022-08-11T06:03:48;11.10;;;9.88;;
39454;SDS011;25155;41.890;23.446;2022-08-11T06:06:36;11.30;;;10.20;;
39454;SDS011;25155;41.890;23.446;2022-08-11T06:09:06;11.03;;;9.90;;
39454;SDS011;25155;41.890;23.446;2022-08-11T06:11:38;12.13;;;10.93;;
39454;SDS011;25155;41.890;23.446;2022-08-11T06:14:08;13.65;;;11.27;;
39454;SDS011;25155;41.890;23.446;2022-08-11T06:16:37;11.40;;;10.27;;
39454;SDS011;25155;41.890;23.446;2022-08-11T06:19:06;11.13;;;9.57;;
39454;SDS011;25155;41.890;23.446;2022-08-11T06:21:34;10.57;;;9.45;;
39454;SDS011;25155;41.890;23.446;2022-08-11T06:24:04;9.82;;;8.70;;
39454;SDS011;25155;41.890;23.446;2022-08-11T06:26:38;8.20;;;7.35;;
39454;SDS011;25155;41.890;23.446;2022-08-11T06:29:06;10.55;;;9.43;;
39454;SDS011;25155;41.890;23.446;2022-08-11T06:31:36;9.80;;;8.80;;
39454;SDS011;25155;41.890;23.446;2022-08-11T06:34:08;14.13;;;10.70;;
39454;SDS011;25155;41.890;23.446;2022-08-11T06:36:43;9.88;;;8.88;;
39454;SDS011;25155;41.890;23.446;2022-08-11T06:39:21;11.30;;;10.10;;
39454;SDS011;25155;41.890;23.446;2022-08-11T06:41:56;12.80;;;9.88;;
39454;SDS011;25155;41.890;23.446;2022-08-11T06:44:29;9.18;;;8.18;;
39454;SDS011;25155;41.890;23.446;2022-08-11T06:47:06;9.52;;;8.52;;
39454;SDS011;25155;41.890;23.446;2022-08-11T06:49:37;10.98;;;7.80;;
39454;SDS011;25155;41.890;23.446;2022-08-11T06:52:29;8.60;;;7.55;;
39454;SDS011;25155;41.890;23.446;2022-08-11T06:54:59;9.63;;;7.35;;
39454;SDS011;25155;41.890;23.446;2022-08-11T06:57:32;7.15;;;6.07;;
39454;SDS011;25155;41.890;23.446;2022-08-11T07:00:17;8.43;;;6.20;;
39454;SDS011;25155;41.890;23.446;2022-08-11T07:02:56;6.97;;;6.22;;
39454;SDS011;25155;41.890;23.446;2022-08-11T07:05:28;7.40;;;6.25;;
39454;SDS011;25155;41.890;23.446;2022-08-11T07:08:19;7.97;;;6.30;;
39454;SDS011;25155;41.890;23.446;2022-08-11T07:21:21;6.70;;;6.00;;
39454;SDS011;25155;41.890;23.446;2022-08-11T07:24:12;7.43;;;5.75;;
39454;SDS011;25155;41.890;23.446;2022-08-11T07:26:59;8.40;;;5.68;;
39454;SDS011;25155;41.890;23.446;2022-08-11T07:29:48;10.25;;;6.30;;
39454;SDS011;25155;41.890;23.446;2022-08-11T07:32:19;6.20;;;5.30;;
39454;SDS011;25155;41.890;23.446;2022-08-11T07:34:52;5.65;;;4.82;;
39454;SDS011;25155;41.890;23.446;2022-08-11T07:37:24;6.18;;;5.55;;
39454;SDS011;25155;41.890;23.446;2022-08-11T07:39:57;6.50;;;5.05;;
39454;SDS011;25155;41.890;23.446;2022-08-11T07:42:26;5.90;;;5.07;;
39454;SDS011;25155;41.890;23.446;2022-08-11T07:44:57;5.65;;;4.57;;
39454;SDS011;25155;41.890;23.446;2022-08-11T07:47:42;6.32;;;4.80;;
39454;SDS011;25155;41.890;23.446;2022-08-11T07:50:30;5.72;;;4.15;;
39454;SDS011;25155;41.890;23.446;2022-08-11T07:53:15;6.25;;;4.72;;
39454;SDS011;25155;41.890;23.446;2022-08-11T07:55:46;5.43;;;4.28;;
39454;SDS011;25155;41.890;23.446;2022-08-11T07:58:14;5.57;;;4.47;;
39454;SDS011;25155;41.890;23.446;2022-08-11T08:01:00;6.25;;;4.88;;
39454;SDS011;25155;41.890;23.446;2022-08-11T08:03:45;4.82;;;3.80;;
39454;SDS011;25155;41.890;23.446;2022-08-11T08:06:31;5.80;;;3.63;;
39454;SDS011;25155;41.890;23.446;2022-08-11T08:09:19;4.50;;;3.50;;
39454;SDS011;25155;41.890;23.446;2022-08-11T08:12:06;12.13;;;3.80;;
39454;SDS011;25155;41.890;23.446;2022-08-11T08:14:52;5.00;;;3.72;;
39454;SDS011;25155;41.890;23.446;2022-08-11T08:17:39;6.13;;;3.92;;
39454;SDS011;25155;41.890;23.446;2022-08-11T08:20:18;5.03;;;4.22;;
39454;SDS011;25155;41.890;23.446;2022-08-11T08:22:48;5.25;;;3.95;;
39454;SDS011;25155;41.890;23.446;2022-08-11T08:25:22;12.85;;;4.20;;
39454;SDS011;25155;41.890;23.446;2022-08-11T08:27:52;4.80;;;3.75;;
39454;SDS011;25155;41.890;23.446;2022-08-11T08:30:20;5.70;;;4.40;;
39454;SDS011;25155;41.890;23.446;2022-08-11T08:33:07;5.45;;;4.00;;
39454;SDS011;25155;41.890;23.446;2022-08-11T08:35:35;4.90;;;3.75;;
39454;SDS011;25155;41.890;23.446;2022-08-11T08:38:03;5.13;;;3.92;;
39454;SDS011;25155;41.890;23.446;2022-08-11T08:40:30;5.47;;;3.97;;
39454;SDS011;25155;41.890;23.446;2022-08-11T08:43:01;5.68;;;4.05;;
39454;SDS011;25155;41.890;23.446;2022-08-11T08:45:34;4.43;;;3.58;;
39454;SDS011;25155;41.890;23.446;2022-08-11T08:48:04;5.05;;;3.90;;
39454;SDS011;25155;41.890;23.446;2022-08-11T08:53:20;6.18;;;3.78;;
39454;SDS011;25155;41.890;23.446;2022-08-11T08:55:49;4.20;;;3.50;;
39454;SDS011;25155;41.890;23.446;2022-08-11T08:58:22;4.85;;;4.00;;
39454;SDS011;25155;41.890;23.446;2022-08-11T09:00:51;5.45;;;4.07;;
39454;SDS011;25155;41.890;23.446;2022-08-11T09:03:19;6.57;;;4.75;;
39454;SDS011;25155;41.890;23.446;2022-08-11T09:05:49;5.60;;;4.30;;
39454;SDS011;25155;41.890;23.446;2022-08-11T09:10:48;5.00;;;4.10;;
39454;SDS011;25155;41.890;23.446;2022-08-11T09:13:41;5.97;;;4.60;;
39454;SDS011;25155;41.890;23.446;2022-08-11T09:16:12;5.78;;;4.75;;
39454;SDS011;25155;41.890;23.446;2022-08-11T09:18:46;5.82;;;4.90;;
39454;SDS011;25155;41.890;23.446;2022-08-11T09:21:20;5.43;;;4.88;;
39454;SDS011;25155;41.890;23.446;2022-08-11T09:24:15;6.55;;;4.80;;
39454;SDS011;25155;41.890;23.446;2022-08-11T09:30:11;5.25;;;4.45;;
39454;SDS011;25155;41.890;23.446;2022-08-11T09:32:38;6.35;;;4.40;;
39454;SDS011;25155;41.890;23.446;2022-08-11T09:35:06;4.53;;;3.83;;
39454;SDS011;25155;41.890;23.446;2022-08-11T09:37:34;5.68;;;4.18;;
39454;SDS011;25155;41.890;23.446;2022-08-11T09:40:20;6.53;;;4.28;;
39454;SDS011;25155;41.890;23.446;2022-08-11T09:42:58;5.28;;;3.83;;
39454;SDS011;25155;41.890;23.446;2022-08-11T09:45:47;4.60;;;3.50;;
39454;SDS011;25155;41.890;23.446;2022-08-11T09:48:16;4.75;;;3.55;;
39454;SDS011;25155;41.890;23.446;2022-08-11T09:50:47;5.57;;;3.53;;
39454;SDS011;25155;41.890;23.446;2022-08-11T09:53:20;4.28;;;3.38;;
39454;SDS011;25155;41.890;23.446;2022-08-11T09:55:49;4.50;;;3.22;;
39454;SDS011;25155;41.890;23.446;2022-08-11T09:58:17;4.40;;;3.30;;
39454;SDS011;25155;41.890;23.446;2022-08-11T10:00:44;4.10;;;3.35;;
39454;SDS011;25155;41.890;23.446;2022-08-11T10:03:16;4.53;;;3.65;;
39454;SDS011;25155;41.890;23.446;2022-08-11T10:05:45;4.47;;;3.33;;
39454;SDS011;25155;41.890;23.446;2022-08-11T10:08:31;3.65;;;2.65;;
39454;SDS011;25155;41.890;23.446;2022-08-11T10:11:02;3.63;;;2.63;;
39454;SDS011;25155;41.890;23.446;2022-08-11T10:13:32;3.40;;;2.28;;
39454;SDS011;25155;41.890;23.446;2022-08-11T10:16:23;3.50;;;2.40;;
39454;SDS011;25155;41.890;23.446;2022-08-11T10:18:52;3.50;;;2.45;;
39454;SDS011;25155;41.890;23.446;2022-08-11T10:21:25;3.58;;;2.38;;
39454;SDS011;25155;41.890;23.446;2022-08-11T10:23:57;3.53;;;2.40;;
39454;SDS011;25155;41.890;23.446;2022-08-11T10:26:42;4.20;;;3.10;;
39454;SDS011;25155;41.890;23.446;2022-08-11T10:29:19;3.17;;;2.22;;
39454;SDS011;25155;41.890;23.446;2022-08-11T10:32:06;3.65;;;2.65;;
39454;SDS011;25155;41.890;23.446;2022-08-11T10:34:52;3.90;;;2.80;;
39454;SDS011;25155;41.890;23.446;2022-08-11T10:37:21;3.85;;;2.97;;
39454;SDS011;25155;41.890;23.446;2022-08-11T10:39:50;7.40;;;3.13;;
39454;SDS011;25155;41.890;23.446;2022-08-11T10:42:20;4.05;;;2.83;;
39454;SDS011;25155;41.890;23.446;2022-08-11T10:45:06;3.40;;;2.50;;
39454;SDS011;25155;41.890;23.446;2022-08-11T10:47:57;4.63;;;2.42;;
39454;SDS011;25155;41.890;23.446;2022-08-11T10:50:24;4.20;;;2.72;;
39454;SDS011;25155;41.890;23.446;2022-08-11T10:53:10;2.80;;;2.20;;
39454;SDS011;25155;41.890;23.446;2022-08-11T10:55:57;3.67;;;2.38;;
39454;SDS011;25155;41.890;23.446;2022-08-11T10:58:42;2.47;;;2.00;;
39454;SDS011;25155;41.890;23.446;2022-08-11T11:01:14;2.95;;;2.15;;
39454;SDS011;25155;41.890;23.446;2022-08-11T11:03:45;2.67;;;2.13;;
39454;SDS011;25155;41.890;23.446;2022-08-11T11:06:16;7.13;;;2.50;;
39454;SDS011;25155;41.890;23.446;2022-08-11T11:08:51;4.70;;;2.63;;
39454;SDS011;25155;41.890;23.446;2022-08-11T11:11:23;5.10;;;2.60;;
39454;SDS011;25155;41.890;23.446;2022-08-11T11:14:15;5.82;;;3.00;;
39454;SDS011;25155;41.890;23.446;2022-08-11T11:17:02;6.45;;;3.50;;
39454;SDS011;25155;41.890;23.446;2022-08-11T11:19:50;7.88;;;4.18;;
39454;SDS011;25155;41.890;23.446;2022-08-11T11:22:24;7.40;;;4.20;;
39454;SDS011;25155;41.890;23.446;2022-08-11T11:25:21;5.13;;;3.45;;
39454;SDS011;25155;41.890;23.446;2022-08-11T11:28:21;4.32;;;2.92;;
39454;SDS011;25155;41.890;23.446;2022-08-11T11:31:02;4.43;;;3.08;;
39454;SDS011;25155;41.890;23.446;2022-08-11T11:33:41;3.50;;;2.55;;
39454;SDS011;25155;41.890;23.446;2022-08-11T11:36:25;6.20;;;3.08;;
39454;SDS011;25155;41.890;23.446;2022-08-11T11:39:00;7.68;;;4.15;;
39454;SDS011;25155;41.890;23.446;2022-08-11T11:41:28;7.03;;;4.13;;
39454;SDS011;25155;41.890;23.446;2022-08-11T11:43:55;5.63;;;3.08;;
39454;SDS011;25155;41.890;23.446;2022-08-11T11:46:23;5.68;;;3.10;;
39454;SDS011;25155;41.890;23.446;2022-08-11T11:48:53;6.38;;;4.03;;
39454;SDS011;25155;41.890;23.446;2022-08-11T11:51:24;5.60;;;3.58;;
39454;SDS011;25155;41.890;23.446;2022-08-11T11:53:53;5.80;;;2.95;;
39454;SDS011;25155;41.890;23.446;2022-08-11T11:56:21;4.05;;;2.90;;
39454;SDS011;25155;41.890;23.446;2022-08-11T11:58:51;3.85;;;2.50;;
39454;SDS011;25155;41.890;23.446;2022-08-11T12:01:36;7.65;;;4.72;;
39454;SDS011;25155;41.890;23.446;2022-08-11T12:04:04;7.40;;;4.32;;
39454;SDS011;25155;41.890;23.446;2022-08-11T12:06:33;5.43;;;4.10;;
39454;SDS011;25155;41.890;23.446;2022-08-11T12:09:02;6.93;;;4.70;;
39454;SDS011;25155;41.890;23.446;2022-08-11T12:11:30;5.70;;;4.07;;
39454;SDS011;25155;41.890;23.446;2022-08-11T12:14:16;4.90;;;3.58;;
39454;SDS011;25155;41.890;23.446;2022-08-11T12:16:46;5.25;;;3.50;;
39454;SDS011;25155;41.890;23.446;2022-08-11T12:19:14;6.00;;;3.22;;
39454;SDS011;25155;41.890;23.446;2022-08-11T12:21:47;4.22;;;2.83;;
39454;SDS011;25155;41.890;23.446;2022-08-11T12:24:33;8.82;;;4.18;;
39454;SDS011;25155;41.890;23.446;2022-08-11T12:27:18;4.43;;;3.22;;
39454;SDS011;25155;41.890;23.446;2022-08-11T12:29:47;6.05;;;3.20;;
39454;SDS011;25155;41.890;23.446;2022-08-11T12:32:15;4.65;;;3.13;;
39454;SDS011;25155;41.890;23.446;2022-08-11T12:34:44;6.32;;;4.00;;
39454;SDS011;25155;41.890;23.446;2022-08-11T12:37:12;5.75;;;3.38;;
39454;SDS011;25155;41.890;23.446;2022-08-11T12:39:43;5.38;;;3.55;;
39454;SDS011;25155;41.890;23.446;2022-08-11T12:42:32;4.47;;;2.90;;
39454;SDS011;25155;41.890;23.446;2022-08-11T12:45:21;4.18;;;2.75;;
39454;SDS011;25155;41.890;23.446;2022-08-11T12:48:00;5.40;;;2.80;;
39454;SDS011;25155;41.890;23.446;2022-08-11T12:50:50;4.03;;;2.67;;
39454;SDS011;25155;41.890;23.446;2022-08-11T12:53:44;5.50;;;2.80;;
39454;SDS011;25155;41.890;23.446;2022-08-11T12:56:18;7.65;;;3.50;;
39454;SDS011;25155;41.890;23.446;2022-08-11T12:59:04;4.72;;;2.88;;
39454;SDS011;25155;41.890;23.446;2022-08-11T13:01:50;4.78;;;2.70;;
39454;SDS011;25155;41.890;23.446;2022-08-11T13:04:35;4.93;;;2.80;;
39454;SDS011;25155;41.890;23.446;2022-08-11T13:07:19;5.93;;;3.10;;
39454;SDS011;25155;41.890;23.446;2022-08-11T13:09:49;4.45;;;2.40;;
39454;SDS011;25155;41.890;23.446;2022-08-11T13:12:16;4.00;;;2.53;;
39454;SDS011;25155;41.890;23.446;2022-08-11T13:15:02;5.10;;;2.72;;
39454;SDS011;25155;41.890;23.446;2022-08-11T13:17:31;4.70;;;2.70;;
39454;SDS011;25155;41.890;23.446;2022-08-11T13:20:00;3.60;;;2.45;;
39454;SDS011;25155;41.890;23.446;2022-08-11T13:22:29;5.55;;;2.70;;
39454;SDS011;25155;41.890;23.446;2022-08-11T13:24:58;4.63;;;2.63;;
39454;SDS011;25155;41.890;23.446;2022-08-11T13:27:25;3.70;;;2.35;;
39454;SDS011;25155;41.890;23.446;2022-08-11T13:29:53;4.43;;;2.50;;
39454;SDS011;25155;41.890;23.446;2022-08-11T13:32:41;4.35;;;2.40;;
39454;SDS011;25155;41.890;23.446;2022-08-11T13:35:11;3.58;;;2.20;;
39454;SDS011;25155;41.890;23.446;2022-08-11T13:37:40;4.15;;;2.35;;
39454;SDS011;25155;41.890;23.446;2022-08-11T13:40:12;3.40;;;2.30;;
39454;SDS011;25155;41.890;23.446;2022-08-11T13:42:39;2.75;;;2.00;;
39454;SDS011;25155;41.890;23.446;2022-08-11T13:45:07;2.72;;;1.90;;
39454;SDS011;25155;41.890;23.446;2022-08-11T13:47:36;2.83;;;2.10;;
39454;SDS011;25155;41.890;23.446;2022-08-11T13:50:04;2.40;;;1.90;;
39454;SDS011;25155;41.890;23.446;2022-08-11T13:52:33;2.22;;;1.83;;
39454;SDS011;25155;41.890;23.446;2022-08-11T13:55:03;2.83;;;2.00;;
39454;SDS011;25155;41.890;23.446;2022-08-11T13:57:34;3.22;;;2.10;;
39454;SDS011;25155;41.890;23.446;2022-08-11T14:00:03;3.13;;;1.92;;
39454;SDS011;25155;41.890;23.446;2022-08-11T14:02:38;2.40;;;1.90;;
39454;SDS011;25155;41.890;23.446;2022-08-11T14:05:09;3.65;;;2.38;;
39454;SDS011;25155;41.890;23.446;2022-08-11T14:07:42;3.97;;;2.40;;
39454;SDS011;25155;41.890;23.446;2022-08-11T14:10:14;3.03;;;2.20;;
39454;SDS011;25155;41.890;23.446;2022-08-11T14:12:46;2.38;;;1.90;;
39454;SDS011;25155;41.890;23.446;2022-08-11T14:15:38;2.60;;;1.95;;
39454;SDS011;25155;41.890;23.446;2022-08-11T14:18:10;2.28;;;1.90;;
39454;SDS011;25155;41.890;23.446;2022-08-11T14:20:43;2.58;;;1.98;;
39454;SDS011;25155;41.890;23.446;2022-08-11T14:23:38;2.47;;;2.00;;
39454;SDS011;25155;41.890;23.446;2022-08-11T14:26:08;2.15;;;1.77;;
39454;SDS011;25155;41.890;23.446;2022-08-11T14:28:58;3.10;;;2.30;;
39454;SDS011;25155;41.890;23.446;2022-08-11T14:31:27;4.15;;;2.63;;
39454;SDS011;25155;41.890;23.446;2022-08-11T14:33:56;4.10;;;2.42;;
39454;SDS011;25155;41.890;23.446;2022-08-11T14:36:29;2.53;;;2.00;;
39454;SDS011;25155;41.890;23.446;2022-08-11T14:39:00;3.17;;;2.30;;
39454;SDS011;25155;41.890;23.446;2022-08-11T14:41:29;2.60;;;1.95;;
39454;SDS011;25155;41.890;23.446;2022-08-11T14:44:16;3.13;;;2.30;;
39454;SDS011;25155;41.890;23.446;2022-08-11T14:47:01;4.30;;;2.83;;
39454;SDS011;25155;41.890;23.446;2022-08-11T14:49:30;4.43;;;2.40;;
39454;SDS011;25155;41.890;23.446;2022-08-11T14:52:01;3.87;;;2.10;;
39454;SDS011;25155;41.890;23.446;2022-08-11T14:57:16;2.80;;;1.90;;
39454;SDS011;25155;41.890;23.446;2022-08-11T14:59:47;2.17;;;1.90;;
39454;SDS011;25155;41.890;23.446;2022-08-11T15:02:17;3.58;;;2.50;;
39454;SDS011;25155;41.890;23.446;2022-08-11T15:05:02;3.55;;;2.47;;
39454;SDS011;25155;41.890;23.446;2022-08-11T15:07:31;4.90;;;3.85;;
39454;SDS011;25155;41.890;23.446;2022-08-11T15:10:00;10.45;;;9.15;;
39454;SDS011;25155;41.890;23.446;2022-08-11T15:12:30;10.77;;;9.68;;
39454;SDS011;25155;41.890;23.446;2022-08-11T15:15:01;8.65;;;7.40;;
39454;SDS011;25155;41.890;23.446;2022-08-11T15:17:46;8.95;;;7.80;;
39454;SDS011;25155;41.890;23.446;2022-08-11T15:20:16;9.65;;;7.55;;
39454;SDS011;25155;41.890;23.446;2022-08-11T15:23:03;7.97;;;6.30;;
39454;SDS011;25155;41.890;23.446;2022-08-11T15:25:48;7.53;;;5.93;;
39454;SDS011;25155;41.890;23.446;2022-08-11T15:28:20;6.30;;;5.05;;
39454;SDS011;25155;41.890;23.446;2022-08-11T15:31:08;6.40;;;5.38;;
39454;SDS011;25155;41.890;23.446;2022-08-11T15:33:55;5.80;;;4.75;;
39454;SDS011;25155;41.890;23.446;2022-08-11T15:36:44;6.22;;;4.22;;
39454;SDS011;25155;41.890;23.446;2022-08-11T15:39:32;4.75;;;3.45;;
39454;SDS011;25155;41.890;23.446;2022-08-11T15:42:23;4.05;;;2.72;;
39454;SDS011;25155;41.890;23.446;2022-08-11T15:45:22;4.30;;;3.20;;
39454;SDS011;25155;41.890;23.446;2022-08-11T15:48:11;4.82;;;3.40;;
39454;SDS011;25155;41.890;23.446;2022-08-11T15:50:45;3.70;;;2.80;;
39454;SDS011;25155;41.890;23.446;2022-08-11T15:53:17;3.75;;;2.72;;
39454;SDS011;25155;41.890;23.446;2022-08-11T15:55:53;4.25;;;2.80;;
39454;SDS011;25155;41.890;23.446;2022-08-11T15:58:22;4.78;;;2.80;;
39454;SDS011;25155;41.890;23.446;2022-08-11T16:04:00;4.38;;;3.15;;
39454;SDS011;25155;41.890;23.446;2022-08-11T16:06:41;4.00;;;2.95;;
39454;SDS011;25155;41.890;23.446;2022-08-11T16:09:30;3.50;;;2.60;;
39454;SDS011;25155;41.890;23.446;2022-08-11T16:12:01;5.18;;;3.20;;
39454;SDS011;25155;41.890;23.446;2022-08-11T16:17:18;4.75;;;3.80;;
39454;SDS011;25155;41.890;23.446;2022-08-11T16:19:51;4.55;;;3.03;;
39454;SDS011;25155;41.890;23.446;2022-08-11T16:22:22;3.70;;;2.92;;
39454;SDS011;25155;41.890;23.446;2022-08-11T16:24:58;5.68;;;3.38;;
39454;SDS011;25155;41.890;23.446;2022-08-11T16:27:27;5.18;;;3.72;;
39454;SDS011;25155;41.890;23.446;2022-08-11T16:32:25;4.43;;;3.30;;
39454;SDS011;25155;41.890;23.446;2022-08-11T16:34:56;4.22;;;3.20;;
39454;SDS011;25155;41.890;23.446;2022-08-11T16:37:43;4.43;;;3.22;;
39454;SDS011;25155;41.890;23.446;2022-08-11T16:40:29;4.50;;;3.47;;
39454;SDS011;25155;41.890;23.446;2022-08-11T16:42:58;4.97;;;3.75;;
39454;SDS011;25155;41.890;23.446;2022-08-11T16:45:44;5.90;;;3.38;;
39454;SDS011;25155;41.890;23.446;2022-08-11T16:48:31;3.95;;;2.80;;
39454;SDS011;25155;41.890;23.446;2022-08-11T16:51:01;3.40;;;2.55;;
39454;SDS011;25155;41.890;23.446;2022-08-11T16:53:29;4.72;;;3.22;;
39454;SDS011;25155;41.890;23.446;2022-08-11T16:55:57;5.28;;;3.70;;
39454;SDS011;25155;41.890;23.446;2022-08-11T16:58:30;5.07;;;3.60;;
39454;SDS011;25155;41.890;23.446;2022-08-11T17:01:19;4.40;;;3.20;;
39454;SDS011;25155;41.890;23.446;2022-08-11T17:03:51;3.95;;;2.95;;
39454;SDS011;25155;41.890;23.446;2022-08-11T17:06:43;4.03;;;3.03;;